createdAt,value
2019-02-18T00:04:27.096Z,5.65094
2019-02-18T00:09:50.637Z,5.449524
2019-02-18T00:15:13.353Z,5.600586
2019-02-18T00:20:36.665Z,5.489807
2019-02-18T00:25:59.441Z,5.590515
2019-02-18T00:31:22.289Z,5.26825
2019-02-18T00:36:45.120Z,5.489807
2019-02-18T00:42:07.783Z,5.238037
2019-02-18T00:47:30.471Z,4.875488
2019-02-18T00:52:53.147Z,4.754639
2019-02-18T00:58:16.846Z,4.684143
2019-02-18T01:03:39.616Z,4.835205
2019-02-18T01:09:02.788Z,4.77478
2019-02-18T01:14:25.542Z,4.563293
2019-02-18T01:19:48.313Z,4.563293
2019-02-18T01:25:11.211Z,4.351807
2019-02-18T01:30:34.116Z,4.321594
2019-02-18T01:35:56.838Z,4.351807
2019-02-18T01:41:19.740Z,4.492798
2019-02-18T01:46:42.529Z,4.210815
2019-02-18T01:52:05.215Z,3.818054
2019-02-18T01:57:27.906Z,3.455505
2019-02-18T02:02:51.266Z,3.51593
2019-02-18T02:08:13.930Z,3.38501
2019-02-18T02:13:37.607Z,3.626709
2019-02-18T02:19:00.271Z,3.989258
2019-02-18T02:24:23.044Z,3.818054
2019-02-18T02:29:45.936Z,3.51593
2019-02-18T02:35:08.840Z,3.697205
2019-02-18T02:40:31.727Z,3.666992
2019-02-18T02:45:54.722Z,3.747559
2019-02-18T02:51:17.567Z,3.626709
2019-02-18T02:56:40.457Z,3.616638
2019-02-18T03:02:03.092Z,3.38501
2019-02-18T03:07:27.173Z,2.871399
2019-02-18T03:12:50.635Z,2.730408
2019-02-18T03:18:14.078Z,2.810974
2019-02-18T03:23:36.926Z,2.992249
2019-02-18T03:29:00.256Z,2.810974
2019-02-18T03:34:23.821Z,2.659912
2019-02-18T03:39:46.519Z,2.478638
2019-02-18T03:45:10.025Z,2.690125
2019-02-18T03:50:32.795Z,3.072815
2019-02-18T03:55:55.488Z,3.123169
2019-02-18T04:01:18.293Z,3.022461
2019-02-18T04:06:41.004Z,2.992249
2019-02-18T04:12:03.783Z,2.871399
2019-02-18T04:17:26.528Z,3.163452
2019-02-18T04:22:49.913Z,3.405151
2019-02-18T04:28:12.789Z,3.284302
2019-02-18T04:33:35.441Z,3.052673
2019-02-18T04:38:58.275Z,3.173523
2019-02-18T04:44:20.920Z,3.153381
2019-02-18T04:49:43.620Z,2.891541
2019-02-18T04:55:06.382Z,3.123169
2019-02-18T05:00:29.063Z,2.861328
2019-02-18T05:05:51.933Z,2.901611
2019-02-18T05:11:14.947Z,2.800903
2019-02-18T05:16:39.017Z,2.951965
2019-02-18T05:22:01.980Z,2.861328
2019-02-18T05:27:32.959Z,2.710266
2019-02-18T05:32:47.469Z,2.619629
2019-02-18T05:38:19.136Z,2.891541
2019-02-18T05:43:42.201Z,2.831116
2019-02-18T05:49:04.961Z,2.790833
2019-02-18T05:54:26.709Z,2.730408
2019-02-18T05:59:49.620Z,2.941895
2019-02-18T06:05:12.362Z,2.891541
2019-02-18T06:10:35.101Z,3.052673
2019-02-18T06:15:57.898Z,2.901611
2019-02-18T06:21:20.766Z,2.50885
2019-02-18T06:26:43.466Z,2.730408
2019-02-18T06:32:06.360Z,2.680054
2019-02-18T06:37:29.245Z,2.468567
2019-02-18T06:42:52.074Z,2.25708
2019-02-18T06:48:14.796Z,2.357788
2019-02-18T06:53:37.537Z,2.589417
2019-02-18T06:59:00.255Z,2.790833
2019-02-18T07:04:23.888Z,2.841187
2019-02-18T07:09:51.051Z,2.740479
2019-02-18T07:15:10.233Z,3.123169
2019-02-18T07:20:32.891Z,3.163452
2019-02-18T07:25:55.769Z,3.526001
2019-02-18T07:31:18.520Z,3.737488
2019-02-18T07:36:41.386Z,3.807983
2019-02-18T07:42:04.121Z,3.747559
2019-02-18T07:47:26.854Z,4.079895
2019-02-18T07:52:49.511Z,4.291382
2019-02-18T07:58:12.225Z,4.512939
2019-02-18T08:03:35.067Z,4.875488
2019-02-18T08:08:58.566Z,5.1474
2019-02-18T08:14:21.323Z,5.419312
2019-02-18T08:19:44.728Z,5.802002
2019-02-18T08:25:07.400Z,6.376038
2019-02-18T08:30:30.787Z,6.990356
2019-02-18T08:35:54.490Z,7.524109
2019-02-18T08:41:17.240Z,8.027649
2019-02-18T08:46:40.198Z,8.42041
2019-02-18T08:52:02.828Z,8.782959
2019-02-18T08:57:25.616Z,9.034729
2019-02-18T09:02:48.403Z,9.417419
2019-02-18T09:08:12.294Z,9.769897
2019-02-18T09:13:35.069Z,9.951172
2019-02-18T09:18:58.096Z,10.092163
2019-02-18T09:24:21.011Z,10.253296
2019-02-18T09:29:43.722Z,10.43457
2019-02-18T09:35:05.453Z,10.656128
2019-02-18T09:40:28.381Z,10.877686
2019-02-18T09:45:52.369Z,11.028748
2019-02-18T09:51:15.852Z,11.240234
2019-02-18T09:56:38.541Z,11.492004
2019-02-18T10:02:01.203Z,11.773987
2019-02-18T10:07:24.808Z,11.743774
2019-02-18T10:12:48.571Z,11.824341
2019-02-18T10:18:12.325Z,12.06604
2019-02-18T10:23:35.187Z,12.176819
2019-02-18T10:28:57.934Z,12.247314
2019-02-18T10:34:20.770Z,12.408447
2019-02-18T10:39:43.606Z,12.589722
2019-02-18T10:45:06.409Z,12.811279
2019-02-18T10:50:29.232Z,13.042908
2019-02-18T10:55:52.176Z,13.173828
2019-02-18T11:01:14.879Z,13.224182
2019-02-18T11:06:37.638Z,13.526306
2019-02-18T11:12:00.295Z,13.798218
2019-02-18T11:17:23.525Z,13.808289
2019-02-18T11:22:47.175Z,13.747864
2019-02-18T11:28:09.849Z,14.060059
2019-02-18T11:33:32.521Z,14.211121
2019-02-18T11:38:55.925Z,13.989563
2019-02-18T11:44:18.632Z,14.20105
2019-02-18T11:49:41.362Z,14.593811
2019-02-18T11:55:04.149Z,14.714661
2019-02-18T12:00:26.789Z,14.936218
2019-02-18T12:05:49.892Z,14.775085
2019-02-18T12:11:13.148Z,14.996643
2019-02-18T12:16:35.947Z,15.177917
2019-02-18T12:21:58.627Z,15.369263
2019-02-18T12:27:21.415Z,15.671387
2019-02-18T12:32:45.200Z,15.983582
2019-02-18T12:38:08.646Z,16.285706
2019-02-18T12:43:31.385Z,16.366272
2019-02-18T12:48:54.668Z,16.71875
2019-02-18T12:54:17.352Z,17.403564
2019-02-18T12:59:40.158Z,18.108521
2019-02-18T13:05:03.616Z,18.259583
2019-02-18T13:10:34.408Z,18.783264
2019-02-18T13:15:49.083Z,18.934326
2019-02-18T13:21:11.763Z,19.085388
2019-02-18T13:26:34.618Z,18.904114
2019-02-18T13:31:57.349Z,18.692627
2019-02-18T13:37:20.014Z,17.584839
2019-02-18T13:42:42.727Z,17.252502
2019-02-18T13:48:05.464Z,16.285706
2019-02-18T13:53:28.246Z,16.507263
2019-02-18T13:58:50.928Z,16.58783
2019-02-18T14:04:13.709Z,15.993652
2019-02-18T14:09:36.424Z,15.96344
2019-02-18T14:14:59.189Z,15.772095
2019-02-18T14:20:21.930Z,15.731812
2019-02-18T14:25:44.644Z,15.84259
2019-02-18T14:31:07.482Z,15.852661
2019-02-18T14:36:30.203Z,15.762024
2019-02-18T14:41:52.907Z,15.782166
2019-02-18T14:47:16.478Z,15.862732
2019-02-18T14:52:39.192Z,15.852661
2019-02-18T14:58:01.981Z,15.862732
2019-02-18T15:03:24.822Z,15.782166
2019-02-18T15:08:47.508Z,15.882874
2019-02-18T15:14:11.109Z,16.044006
2019-02-18T15:19:37.234Z,15.701599
2019-02-18T15:24:59.940Z,15.762024
2019-02-18T15:30:23.342Z,15.671387
2019-02-18T15:35:45.140Z,15.731812
2019-02-18T15:41:07.826Z,15.59082
2019-02-18T15:46:30.497Z,15.228271
2019-02-18T15:51:53.362Z,15.117493
2019-02-18T15:57:16.110Z,14.815369
2019-02-18T16:02:38.944Z,14.120483
2019-02-18T16:08:02.016Z,13.244324
2019-02-18T16:13:25.281Z,12.740784
2019-02-18T16:18:47.990Z,11.884766
2019-02-18T16:24:19.576Z,11.492004
2019-02-18T16:29:34.398Z,10.877686
2019-02-18T16:34:57.162Z,10.343933
2019-02-18T16:40:19.907Z,10.283508
2019-02-18T16:45:42.677Z,9.779968
2019-02-18T16:51:05.491Z,9.29657
2019-02-18T16:56:28.269Z,9.165649
2019-02-18T17:01:51.235Z,9.407349
2019-02-18T17:07:14.198Z,9.004517
2019-02-18T17:12:36.946Z,8.631897
2019-02-18T17:17:59.736Z,8.500977
2019-02-18T17:23:22.423Z,8.450623
2019-02-18T17:28:45.168Z,8.460693
2019-02-18T17:34:07.941Z,8.279419
2019-02-18T17:39:31.030Z,8.098145
2019-02-18T17:44:53.827Z,8.178711
2019-02-18T17:50:16.570Z,8.017578
2019-02-18T17:55:40.498Z,7.856445
2019-02-18T18:01:03.194Z,8.239136
2019-02-18T18:06:25.961Z,7.524109
2019-02-18T18:11:48.659Z,7.554321
2019-02-18T18:17:11.450Z,7.473755
2019-02-18T18:22:34.165Z,7.393188
2019-02-18T18:27:57.639Z,7.16156
2019-02-18T18:33:20.529Z,7.091064
2019-02-18T18:38:43.358Z,7.080994
2019-02-18T18:44:07.561Z,6.77887
2019-02-18T18:49:30.578Z,6.446533
2019-02-18T18:54:53.352Z,6.104126
2019-02-18T19:00:16.091Z,6.104126
2019-02-18T19:05:38.802Z,5.78186
2019-02-18T19:11:01.631Z,5.368958
2019-02-18T19:16:24.859Z,5.449524
2019-02-18T19:21:48.603Z,6.325684
2019-02-18T19:27:10.843Z,5.963135
2019-02-18T19:32:33.832Z,6.013489
2019-02-18T19:37:56.465Z,6.03363
2019-02-18T19:43:17.514Z,6.114197
2019-02-18T19:48:40.651Z,5.90271
2019-02-18T19:54:03.783Z,6.02356
2019-02-18T19:59:27.575Z,6.295471
2019-02-18T20:04:50.583Z,6.547241
2019-02-18T20:10:13.574Z,6.376038
2019-02-18T20:15:36.667Z,6.446533
2019-02-18T20:21:00.553Z,6.144409
2019-02-18T20:26:23.721Z,5.832214
2019-02-18T20:31:46.914Z,5.419312
2019-02-18T20:37:10.061Z,5.52002
2019-02-18T20:42:33.341Z,5.318604
2019-02-18T20:47:56.486Z,5.550232
2019-02-18T20:53:19.475Z,5.671082
2019-02-18T20:58:43.522Z,5.691223
2019-02-18T21:04:06.351Z,5.52002
2019-02-18T21:09:29.388Z,5.238037
2019-02-18T21:14:52.649Z,5.469666
2019-02-18T21:20:16.340Z,5.379028
2019-02-18T21:25:39.319Z,4.89563
2019-02-18T21:31:02.134Z,4.89563
2019-02-18T21:36:25.436Z,4.835205
2019-02-18T21:41:48.514Z,4.89563
2019-02-18T21:47:11.514Z,5.006409
2019-02-18T21:52:34.462Z,5.328674
2019-02-18T21:57:57.439Z,5.167542
2019-02-18T22:03:19.482Z,4.905701
2019-02-18T22:08:42.255Z,5.016479
2019-02-18T22:14:04.967Z,5.036621
2019-02-18T22:19:27.851Z,5.238037
2019-02-18T22:24:50.627Z,5.217896
2019-02-18T22:30:13.478Z,5.318604
2019-02-18T22:35:36.273Z,5.52002
2019-02-18T22:41:00.084Z,5.439453
2019-02-18T22:46:22.811Z,5.1474
2019-02-18T22:51:46.251Z,5.006409
2019-02-18T22:57:08.910Z,4.724426
2019-02-18T23:02:31.601Z,4.925842
2019-02-18T23:07:55.448Z,4.986267
2019-02-18T23:13:19.095Z,4.744568
2019-02-18T23:18:41.865Z,4.512939
2019-02-18T23:24:04.675Z,4.422302
2019-02-18T23:29:27.509Z,4.714355
2019-02-18T23:34:50.205Z,4.512939
2019-02-18T23:40:13.145Z,4.341736
2019-02-18T23:45:35.937Z,4.291382
2019-02-18T23:50:58.725Z,4.442444
2019-02-18T23:56:21.511Z,4.492798
